sensor_id;sensor_type;location;lat;lon;timestamp;temperature;humidity
9837;DHT22;4957;51.412;6.724;2022-07-29T00:01:35;22.40;42.60
9837;DHT22;4957;51.412;6.724;2022-07-29T00:04:01;22.40;42.70
9837;DHT22;4957;51.412;6.724;2022-07-29T00:06:27;22.30;43.20
9837;DHT22;4957;51.412;6.724;2022-07-29T00:08:52;22.30;42.70
9837;DHT22;4957;51.412;6.724;2022-07-29T00:11:18;22.30;42.80
9837;DHT22;4957;51.412;6.724;2022-07-29T00:13:44;22.30;43.00
9837;DHT22;4957;51.412;6.724;2022-07-29T00:16:09;22.30;43.00
9837;DHT22;4957;51.412;6.724;2022-07-29T00:18:35;22.30;43.10
9837;DHT22;4957;51.412;6.724;2022-07-29T00:21:01;22.30;43.10
9837;DHT22;4957;51.412;6.724;2022-07-29T00:23:26;22.30;43.00
9837;DHT22;4957;51.412;6.724;2022-07-29T00:25:52;22.30;42.90
9837;DHT22;4957;51.412;6.724;2022-07-29T00:28:18;22.30;42.90
9837;DHT22;4957;51.412;6.724;2022-07-29T00:30:44;22.30;42.90
9837;DHT22;4957;51.412;6.724;2022-07-29T00:33:09;22.30;42.90
9837;DHT22;4957;51.412;6.724;2022-07-29T00:35:35;22.30;42.90
9837;DHT22;4957;51.412;6.724;2022-07-29T00:38:12;22.20;43.00
9837;DHT22;4957;51.412;6.724;2022-07-29T00:40:38;22.20;43.00
9837;DHT22;4957;51.412;6.724;2022-07-29T00:43:03;22.20;43.10
9837;DHT22;4957;51.412;6.724;2022-07-29T00:45:29;22.10;43.10
9837;DHT22;4957;51.412;6.724;2022-07-29T00:47:55;22.10;43.20
9837;DHT22;4957;51.412;6.724;2022-07-29T00:50:21;22.10;43.20
9837;DHT22;4957;51.412;6.724;2022-07-29T00:52:48;22.10;43.30
9837;DHT22;4957;51.412;6.724;2022-07-29T00:55:15;22.10;43.40
9837;DHT22;4957;51.412;6.724;2022-07-29T00:57:42;22.10;43.50
9837;DHT22;4957;51.412;6.724;2022-07-29T01:00:10;22.00;43.30
9837;DHT22;4957;51.412;6.724;2022-07-29T01:02:36;22.00;43.50
9837;DHT22;4957;51.412;6.724;2022-07-29T01:05:03;22.00;43.30
9837;DHT22;4957;51.412;6.724;2022-07-29T01:07:30;22.00;43.50
9837;DHT22;4957;51.412;6.724;2022-07-29T01:09:57;22.00;43.50
9837;DHT22;4957;51.412;6.724;2022-07-29T01:12:25;21.90;43.60
9837;DHT22;4957;51.412;6.724;2022-07-29T01:14:52;21.90;43.70
9837;DHT22;4957;51.412;6.724;2022-07-29T01:19:48;21.90;43.70
9837;DHT22;4957;51.412;6.724;2022-07-29T01:27:33;21.90;43.70
9837;DHT22;4957;51.412;6.724;2022-07-29T01:30:04;21.80;43.80
9837;DHT22;4957;51.412;6.724;2022-07-29T01:32:33;21.80;43.60
9837;DHT22;4957;51.412;6.724;2022-07-29T01:37:45;21.80;44.00
9837;DHT22;4957;51.412;6.724;2022-07-29T01:40:34;21.70;43.80
9837;DHT22;4957;51.412;6.724;2022-07-29T01:43:09;21.70;44.10
9837;DHT22;4957;51.412;6.724;2022-07-29T01:46:05;21.70;44.10
9837;DHT22;4957;51.412;6.724;2022-07-29T01:48:42;21.70;44.20
9837;DHT22;4957;51.412;6.724;2022-07-29T01:51:14;21.60;44.10
9837;DHT22;4957;51.412;6.724;2022-07-29T01:53:55;21.70;44.20
9837;DHT22;4957;51.412;6.724;2022-07-29T01:56:26;21.70;44.20
9837;DHT22;4957;51.412;6.724;2022-07-29T01:58:56;21.60;44.10
9837;DHT22;4957;51.412;6.724;2022-07-29T02:01:24;21.60;44.20
9837;DHT22;4957;51.412;6.724;2022-07-29T02:03:51;21.60;44.30
9837;DHT22;4957;51.412;6.724;2022-07-29T02:06:21;21.60;44.30
9837;DHT22;4957;51.412;6.724;2022-07-29T02:08:49;21.50;44.50
9837;DHT22;4957;51.412;6.724;2022-07-29T02:11:15;21.50;44.70
9837;DHT22;4957;51.412;6.724;2022-07-29T02:13:41;21.40;44.60
9837;DHT22;4957;51.412;6.724;2022-07-29T02:16:09;21.40;44.70
9837;DHT22;4957;51.412;6.724;2022-07-29T02:18:37;21.40;44.80
9837;DHT22;4957;51.412;6.724;2022-07-29T02:21:04;21.40;44.70
9837;DHT22;4957;51.412;6.724;2022-07-29T02:23:31;21.40;44.80
9837;DHT22;4957;51.412;6.724;2022-07-29T02:25:57;21.40;44.80
9837;DHT22;4957;51.412;6.724;2022-07-29T02:28:26;21.40;44.80
9837;DHT22;4957;51.412;6.724;2022-07-29T02:30:54;21.40;44.60
9837;DHT22;4957;51.412;6.724;2022-07-29T02:33:21;21.40;44.70
9837;DHT22;4957;51.412;6.724;2022-07-29T02:35:50;21.50;44.60
9837;DHT22;4957;51.412;6.724;2022-07-29T02:38:17;21.50;44.50
9837;DHT22;4957;51.412;6.724;2022-07-29T02:41:10;21.50;45.20
9837;DHT22;4957;51.412;6.724;2022-07-29T02:43:37;21.50;44.70
9837;DHT22;4957;51.412;6.724;2022-07-29T02:46:05;21.50;44.40
9837;DHT22;4957;51.412;6.724;2022-07-29T02:48:42;21.50;44.50
9837;DHT22;4957;51.412;6.724;2022-07-29T02:51:19;21.40;45.30
9837;DHT22;4957;51.412;6.724;2022-07-29T02:53:50;21.50;45.00
9837;DHT22;4957;51.412;6.724;2022-07-29T02:56:23;21.50;44.80
9837;DHT22;4957;51.412;6.724;2022-07-29T02:58:54;21.40;44.70
9837;DHT22;4957;51.412;6.724;2022-07-29T03:01:22;21.40;44.50
9837;DHT22;4957;51.412;6.724;2022-07-29T03:03:50;21.40;44.70
9837;DHT22;4957;51.412;6.724;2022-07-29T03:06:18;21.40;44.70
9837;DHT22;4957;51.412;6.724;2022-07-29T03:08:45;21.40;44.80
9837;DHT22;4957;51.412;6.724;2022-07-29T03:11:11;21.30;44.80
9837;DHT22;4957;51.412;6.724;2022-07-29T03:13:38;21.30;44.90
9837;DHT22;4957;51.412;6.724;2022-07-29T03:16:05;21.30;44.70
9837;DHT22;4957;51.412;6.724;2022-07-29T03:18:31;21.30;44.90
9837;DHT22;4957;51.412;6.724;2022-07-29T03:20:57;21.20;44.90
9837;DHT22;4957;51.412;6.724;2022-07-29T03:23:24;21.20;45.20
9837;DHT22;4957;51.412;6.724;2022-07-29T03:25:51;21.20;45.40
9837;DHT22;4957;51.412;6.724;2022-07-29T03:28:17;21.10;45.40
9837;DHT22;4957;51.412;6.724;2022-07-29T03:30:43;21.10;45.50
9837;DHT22;4957;51.412;6.724;2022-07-29T03:33:08;21.10;45.50
9837;DHT22;4957;51.412;6.724;2022-07-29T03:35:34;21.10;45.70
9837;DHT22;4957;51.412;6.724;2022-07-29T03:38:00;21.10;45.70
9837;DHT22;4957;51.412;6.724;2022-07-29T03:40:49;21.10;46.00
9837;DHT22;4957;51.412;6.724;2022-07-29T03:43:17;21.00;46.40
9837;DHT22;4957;51.412;6.724;2022-07-29T03:45:47;21.00;46.00
9837;DHT22;4957;51.412;6.724;2022-07-29T03:48:16;21.00;45.90
9837;DHT22;4957;51.412;6.724;2022-07-29T03:50:43;21.00;46.30
9837;DHT22;4957;51.412;6.724;2022-07-29T03:53:09;21.00;46.20
9837;DHT22;4957;51.412;6.724;2022-07-29T03:55:44;20.90;46.20
9837;DHT22;4957;51.412;6.724;2022-07-29T03:58:12;20.90;46.70
9837;DHT22;4957;51.412;6.724;2022-07-29T04:00:39;20.90;46.30
9837;DHT22;4957;51.412;6.724;2022-07-29T04:03:06;20.90;46.70
9837;DHT22;4957;51.412;6.724;2022-07-29T04:05:32;20.90;47.40
9837;DHT22;4957;51.412;6.724;2022-07-29T04:07:58;20.90;48.20
9837;DHT22;4957;51.412;6.724;2022-07-29T04:10:23;20.80;49.20
9837;DHT22;4957;51.412;6.724;2022-07-29T04:12:49;20.80;49.60
9837;DHT22;4957;51.412;6.724;2022-07-29T04:15:15;20.70;50.20
9837;DHT22;4957;51.412;6.724;2022-07-29T04:17:41;20.70;50.60
9837;DHT22;4957;51.412;6.724;2022-07-29T04:20:07;20.60;51.00
9837;DHT22;4957;51.412;6.724;2022-07-29T04:22:33;20.50;51.80
9837;DHT22;4957;51.412;6.724;2022-07-29T04:24:58;20.50;52.30
9837;DHT22;4957;51.412;6.724;2022-07-29T04:27:25;20.40;52.30
9837;DHT22;4957;51.412;6.724;2022-07-29T04:29:50;20.40;53.10
9837;DHT22;4957;51.412;6.724;2022-07-29T04:32:16;20.40;53.20
9837;DHT22;4957;51.412;6.724;2022-07-29T04:34:42;20.30;53.80
9837;DHT22;4957;51.412;6.724;2022-07-29T04:37:08;20.20;53.90
9837;DHT22;4957;51.412;6.724;2022-07-29T04:39:33;20.20;54.30
9837;DHT22;4957;51.412;6.724;2022-07-29T04:41:59;20.10;54.10
9837;DHT22;4957;51.412;6.724;2022-07-29T04:44:25;20.00;54.70
9837;DHT22;4957;51.412;6.724;2022-07-29T04:46:50;20.00;54.70
9837;DHT22;4957;51.412;6.724;2022-07-29T04:49:16;19.90;54.90
9837;DHT22;4957;51.412;6.724;2022-07-29T04:51:42;19.90;55.20
9837;DHT22;4957;51.412;6.724;2022-07-29T04:54:07;19.80;54.70
9837;DHT22;4957;51.412;6.724;2022-07-29T04:56:33;19.80;55.50
9837;DHT22;4957;51.412;6.724;2022-07-29T04:58:59;19.70;55.30
9837;DHT22;4957;51.412;6.724;2022-07-29T05:01:24;19.70;56.20
9837;DHT22;4957;51.412;6.724;2022-07-29T05:03:50;19.70;57.20
9837;DHT22;4957;51.412;6.724;2022-07-29T05:06:16;19.60;56.80
9837;DHT22;4957;51.412;6.724;2022-07-29T05:08:41;19.60;56.60
9837;DHT22;4957;51.412;6.724;2022-07-29T05:11:07;19.50;56.70
9837;DHT22;4957;51.412;6.724;2022-07-29T05:13:33;19.50;57.20
9837;DHT22;4957;51.412;6.724;2022-07-29T05:15:58;19.50;57.30
9837;DHT22;4957;51.412;6.724;2022-07-29T05:18:25;19.40;58.80
9837;DHT22;4957;51.412;6.724;2022-07-29T05:20:51;19.30;59.50
9837;DHT22;4957;51.412;6.724;2022-07-29T05:23:16;19.20;59.40
9837;DHT22;4957;51.412;6.724;2022-07-29T05:25:42;19.10;59.90
9837;DHT22;4957;51.412;6.724;2022-07-29T05:28:08;19.00;59.80
9837;DHT22;4957;51.412;6.724;2022-07-29T05:30:34;19.00;60.10
9837;DHT22;4957;51.412;6.724;2022-07-29T05:33:00;18.90;60.60
9837;DHT22;4957;51.412;6.724;2022-07-29T05:35:25;18.90;60.30
9837;DHT22;4957;51.412;6.724;2022-07-29T05:37:51;18.90;60.00
9837;DHT22;4957;51.412;6.724;2022-07-29T05:40:17;19.00;59.80
9837;DHT22;4957;51.412;6.724;2022-07-29T05:42:43;19.00;60.10
9837;DHT22;4957;51.412;6.724;2022-07-29T05:45:09;19.00;60.70
9837;DHT22;4957;51.412;6.724;2022-07-29T05:47:35;18.90;61.10
9837;DHT22;4957;51.412;6.724;2022-07-29T05:50:01;18.90;61.10
9837;DHT22;4957;51.412;6.724;2022-07-29T05:52:26;18.90;60.90
9837;DHT22;4957;51.412;6.724;2022-07-29T05:54:52;18.90;60.40
9837;DHT22;4957;51.412;6.724;2022-07-29T05:57:23;18.90;60.60
9837;DHT22;4957;51.412;6.724;2022-07-29T05:59:50;18.90;61.10
9837;DHT22;4957;51.412;6.724;2022-07-29T06:02:16;18.90;60.30
9837;DHT22;4957;51.412;6.724;2022-07-29T06:04:42;18.90;60.00
9837;DHT22;4957;51.412;6.724;2022-07-29T06:07:08;18.90;60.10
9837;DHT22;4957;51.412;6.724;2022-07-29T06:09:34;18.90;60.60
9837;DHT22;4957;51.412;6.724;2022-07-29T06:12:01;18.90;60.40
9837;DHT22;4957;51.412;6.724;2022-07-29T06:14:27;18.90;60.70
9837;DHT22;4957;51.412;6.724;2022-07-29T06:16:54;18.90;60.80
9837;DHT22;4957;51.412;6.724;2022-07-29T06:19:19;19.00;61.00
9837;DHT22;4957;51.412;6.724;2022-07-29T06:21:46;19.00;61.20
9837;DHT22;4957;51.412;6.724;2022-07-29T06:24:12;19.00;61.40
9837;DHT22;4957;51.412;6.724;2022-07-29T06:26:39;19.00;62.00
9837;DHT22;4957;51.412;6.724;2022-07-29T06:29:06;19.10;62.20
9837;DHT22;4957;51.412;6.724;2022-07-29T06:31:32;19.00;62.00
9837;DHT22;4957;51.412;6.724;2022-07-29T06:33:57;19.10;62.50
9837;DHT22;4957;51.412;6.724;2022-07-29T06:36:23;19.10;63.20
9837;DHT22;4957;51.412;6.724;2022-07-29T06:38:49;19.10;64.00
9837;DHT22;4957;51.412;6.724;2022-07-29T06:41:14;19.10;64.30
9837;DHT22;4957;51.412;6.724;2022-07-29T06:43:42;19.10;64.40
9837;DHT22;4957;51.412;6.724;2022-07-29T06:46:10;19.10;65.50
9837;DHT22;4957;51.412;6.724;2022-07-29T06:48:36;19.10;65.30
9837;DHT22;4957;51.412;6.724;2022-07-29T06:51:04;19.20;65.10
9837;DHT22;4957;51.412;6.724;2022-07-29T06:53:30;19.20;65.40
9837;DHT22;4957;51.412;6.724;2022-07-29T06:55:56;19.20;65.10
9837;DHT22;4957;51.412;6.724;2022-07-29T06:58:24;19.30;64.90
9837;DHT22;4957;51.412;6.724;2022-07-29T07:00:49;19.30;64.90
9837;DHT22;4957;51.412;6.724;2022-07-29T07:03:16;19.40;64.90
9837;DHT22;4957;51.412;6.724;2022-07-29T07:05:42;19.40;64.90
9837;DHT22;4957;51.412;6.724;2022-07-29T07:08:08;19.40;65.00
9837;DHT22;4957;51.412;6.724;2022-07-29T07:10:34;19.40;64.60
9837;DHT22;4957;51.412;6.724;2022-07-29T07:13:00;19.40;65.20
9837;DHT22;4957;51.412;6.724;2022-07-29T07:15:27;19.40;65.00
9837;DHT22;4957;51.412;6.724;2022-07-29T07:17:52;19.40;64.80
9837;DHT22;4957;51.412;6.724;2022-07-29T07:20:18;19.40;65.00
9837;DHT22;4957;51.412;6.724;2022-07-29T07:22:44;19.40;65.50
9837;DHT22;4957;51.412;6.724;2022-07-29T07:25:10;19.40;65.50
9837;DHT22;4957;51.412;6.724;2022-07-29T07:27:36;19.50;65.90
9837;DHT22;4957;51.412;6.724;2022-07-29T07:30:04;19.50;66.00
9837;DHT22;4957;51.412;6.724;2022-07-29T07:32:31;19.50;65.90
9837;DHT22;4957;51.412;6.724;2022-07-29T07:34:57;19.50;66.40
9837;DHT22;4957;51.412;6.724;2022-07-29T07:37:24;19.50;66.30
9837;DHT22;4957;51.412;6.724;2022-07-29T07:39:50;19.50;66.50
9837;DHT22;4957;51.412;6.724;2022-07-29T07:42:17;19.60;66.90
9837;DHT22;4957;51.412;6.724;2022-07-29T07:44:43;19.50;66.50
9837;DHT22;4957;51.412;6.724;2022-07-29T07:47:08;19.60;67.00
9837;DHT22;4957;51.412;6.724;2022-07-29T07:49:34;19.60;67.20
9837;DHT22;4957;51.412;6.724;2022-07-29T07:52:00;19.60;67.10
9837;DHT22;4957;51.412;6.724;2022-07-29T07:54:26;19.60;67.40
9837;DHT22;4957;51.412;6.724;2022-07-29T07:56:51;19.60;67.10
9837;DHT22;4957;51.412;6.724;2022-07-29T07:59:17;19.60;67.40
9837;DHT22;4957;51.412;6.724;2022-07-29T08:01:43;19.60;67.50
9837;DHT22;4957;51.412;6.724;2022-07-29T08:04:09;19.60;67.60
9837;DHT22;4957;51.412;6.724;2022-07-29T08:06:35;19.60;67.20
9837;DHT22;4957;51.412;6.724;2022-07-29T08:09:03;19.60;67.90
9837;DHT22;4957;51.412;6.724;2022-07-29T08:11:29;19.60;68.00
9837;DHT22;4957;51.412;6.724;2022-07-29T08:13:55;19.60;67.70
9837;DHT22;4957;51.412;6.724;2022-07-29T08:16:21;19.60;67.40
9837;DHT22;4957;51.412;6.724;2022-07-29T08:18:47;19.60;67.30
9837;DHT22;4957;51.412;6.724;2022-07-29T08:21:14;19.60;67.70
9837;DHT22;4957;51.412;6.724;2022-07-29T08:23:41;19.50;67.60
9837;DHT22;4957;51.412;6.724;2022-07-29T08:26:19;19.50;67.60
9837;DHT22;4957;51.412;6.724;2022-07-29T08:28:46;19.50;67.90
9837;DHT22;4957;51.412;6.724;2022-07-29T08:31:15;19.60;68.10
9837;DHT22;4957;51.412;6.724;2022-07-29T08:33:41;19.50;68.40
9837;DHT22;4957;51.412;6.724;2022-07-29T08:36:07;19.50;68.50
9837;DHT22;4957;51.412;6.724;2022-07-29T08:38:33;19.50;68.90
9837;DHT22;4957;51.412;6.724;2022-07-29T08:41:02;19.50;69.30
9837;DHT22;4957;51.412;6.724;2022-07-29T08:43:28;19.50;70.10
9837;DHT22;4957;51.412;6.724;2022-07-29T08:45:54;19.50;71.30
9837;DHT22;4957;51.412;6.724;2022-07-29T08:48:22;19.50;72.10
9837;DHT22;4957;51.412;6.724;2022-07-29T08:50:53;19.60;71.80
9837;DHT22;4957;51.412;6.724;2022-07-29T08:53:21;19.60;72.50
9837;DHT22;4957;51.412;6.724;2022-07-29T08:55:49;19.60;71.80
9837;DHT22;4957;51.412;6.724;2022-07-29T08:58:16;19.70;72.10
9837;DHT22;4957;51.412;6.724;2022-07-29T09:00:45;19.80;72.50
9837;DHT22;4957;51.412;6.724;2022-07-29T09:03:17;19.90;73.30
9837;DHT22;4957;51.412;6.724;2022-07-29T09:05:45;19.90;73.40
9837;DHT22;4957;51.412;6.724;2022-07-29T09:08:12;20.00;73.80
9837;DHT22;4957;51.412;6.724;2022-07-29T09:10:39;20.10;73.90
9837;DHT22;4957;51.412;6.724;2022-07-29T09:13:04;20.10;73.60
9837;DHT22;4957;51.412;6.724;2022-07-29T09:15:30;20.20;73.80
9837;DHT22;4957;51.412;6.724;2022-07-29T09:17:56;20.20;73.40
9837;DHT22;4957;51.412;6.724;2022-07-29T09:20:24;20.30;73.20
9837;DHT22;4957;51.412;6.724;2022-07-29T09:22:51;20.30;73.30
9837;DHT22;4957;51.412;6.724;2022-07-29T09:25:34;20.30;73.20
9837;DHT22;4957;51.412;6.724;2022-07-29T09:28:11;20.40;73.40
9837;DHT22;4957;51.412;6.724;2022-07-29T09:30:57;20.40;72.50
9837;DHT22;4957;51.412;6.724;2022-07-29T09:33:31;20.50;72.90
9837;DHT22;4957;51.412;6.724;2022-07-29T09:36:05;20.40;71.80
9837;DHT22;4957;51.412;6.724;2022-07-29T09:38:31;20.50;72.80
9837;DHT22;4957;51.412;6.724;2022-07-29T09:41:01;20.50;72.50
9837;DHT22;4957;51.412;6.724;2022-07-29T09:43:27;20.50;72.10
9837;DHT22;4957;51.412;6.724;2022-07-29T09:45:53;20.50;71.40
9837;DHT22;4957;51.412;6.724;2022-07-29T09:48:21;20.60;71.20
9837;DHT22;4957;51.412;6.724;2022-07-29T09:50:47;20.60;71.20
9837;DHT22;4957;51.412;6.724;2022-07-29T09:53:36;20.60;70.80
9837;DHT22;4957;51.412;6.724;2022-07-29T09:56:04;20.60;71.90
9837;DHT22;4957;51.412;6.724;2022-07-29T09:58:30;20.70;70.60
9837;DHT22;4957;51.412;6.724;2022-07-29T10:00:56;20.70;70.50
9837;DHT22;4957;51.412;6.724;2022-07-29T10:03:23;20.70;70.90
9837;DHT22;4957;51.412;6.724;2022-07-29T10:06:06;20.70;70.70
9837;DHT22;4957;51.412;6.724;2022-07-29T10:08:32;20.70;71.40
9837;DHT22;4957;51.412;6.724;2022-07-29T10:11:12;20.70;70.30
9837;DHT22;4957;51.412;6.724;2022-07-29T10:13:38;20.70;71.20
9837;DHT22;4957;51.412;6.724;2022-07-29T10:16:06;20.70;70.00
9837;DHT22;4957;51.412;6.724;2022-07-29T10:18:32;20.70;70.30
9837;DHT22;4957;51.412;6.724;2022-07-29T10:20:59;20.70;70.40
9837;DHT22;4957;51.412;6.724;2022-07-29T10:23:27;20.70;71.80
9837;DHT22;4957;51.412;6.724;2022-07-29T10:25:53;20.70;71.70
9837;DHT22;4957;51.412;6.724;2022-07-29T10:28:19;20.80;73.00
9837;DHT22;4957;51.412;6.724;2022-07-29T10:30:45;20.80;73.50
9837;DHT22;4957;51.412;6.724;2022-07-29T10:36:08;21.00;76.00
9837;DHT22;4957;51.412;6.724;2022-07-29T10:38:42;21.10;77.20
9837;DHT22;4957;51.412;6.724;2022-07-29T10:44:15;21.40;76.40
9837;DHT22;4957;51.412;6.724;2022-07-29T10:46:42;21.50;77.10
9837;DHT22;4957;51.412;6.724;2022-07-29T10:49:27;21.70;76.80
9837;DHT22;4957;51.412;6.724;2022-07-29T10:51:57;21.90;78.40
9837;DHT22;4957;51.412;6.724;2022-07-29T10:54:47;22.10;76.90
9837;DHT22;4957;51.412;6.724;2022-07-29T10:57:26;22.30;75.60
9837;DHT22;4957;51.412;6.724;2022-07-29T11:04:59;23.00;72.70
9837;DHT22;4957;51.412;6.724;2022-07-29T11:07:28;23.30;71.20
9837;DHT22;4957;51.412;6.724;2022-07-29T11:23:00;24.80;66.50
9837;DHT22;4957;51.412;6.724;2022-07-29T11:25:26;25.00;65.30
9837;DHT22;4957;51.412;6.724;2022-07-29T11:27:54;25.20;64.90
9837;DHT22;4957;51.412;6.724;2022-07-29T11:30:50;25.40;64.20
9837;DHT22;4957;51.412;6.724;2022-07-29T11:33:33;25.70;62.00
9837;DHT22;4957;51.412;6.724;2022-07-29T11:36:13;25.90;60.70
9837;DHT22;4957;51.412;6.724;2022-07-29T11:38:40;26.10;60.30
9837;DHT22;4957;51.412;6.724;2022-07-29T11:41:22;26.30;59.50
9837;DHT22;4957;51.412;6.724;2022-07-29T11:43:55;26.50;57.70
9837;DHT22;4957;51.412;6.724;2022-07-29T11:49:23;27.00;57.50
9837;DHT22;4957;51.412;6.724;2022-07-29T11:51:56;27.20;57.30
9837;DHT22;4957;51.412;6.724;2022-07-29T11:54:33;27.40;56.90
9837;DHT22;4957;51.412;6.724;2022-07-29T11:57:00;27.60;56.50
9837;DHT22;4957;51.412;6.724;2022-07-29T11:59:26;27.70;56.20
9837;DHT22;4957;51.412;6.724;2022-07-29T12:01:56;27.90;55.30
9837;DHT22;4957;51.412;6.724;2022-07-29T12:04:22;28.00;54.40
9837;DHT22;4957;51.412;6.724;2022-07-29T12:06:58;28.20;53.90
9837;DHT22;4957;51.412;6.724;2022-07-29T12:09:24;28.30;52.40
9837;DHT22;4957;51.412;6.724;2022-07-29T12:11:56;28.40;52.30
9837;DHT22;4957;51.412;6.724;2022-07-29T12:14:29;28.50;51.50
9837;DHT22;4957;51.412;6.724;2022-07-29T12:16:56;28.60;51.30
9837;DHT22;4957;51.412;6.724;2022-07-29T12:19:21;28.60;51.10
9837;DHT22;4957;51.412;6.724;2022-07-29T12:21:51;28.60;50.60
9837;DHT22;4957;51.412;6.724;2022-07-29T12:24:18;28.70;50.70
9837;DHT22;4957;51.412;6.724;2022-07-29T12:26:54;28.70;50.10
9837;DHT22;4957;51.412;6.724;2022-07-29T12:29:20;28.70;49.40
9837;DHT22;4957;51.412;6.724;2022-07-29T12:31:46;28.70;49.70
9837;DHT22;4957;51.412;6.724;2022-07-29T12:34:13;28.70;49.30
9837;DHT22;4957;51.412;6.724;2022-07-29T12:36:41;28.70;48.80
9837;DHT22;4957;51.412;6.724;2022-07-29T12:39:08;28.60;48.50
9837;DHT22;4957;51.412;6.724;2022-07-29T12:41:34;28.60;48.40
9837;DHT22;4957;51.412;6.724;2022-07-29T12:44:00;28.60;48.00
9837;DHT22;4957;51.412;6.724;2022-07-29T12:46:26;28.60;47.90
9837;DHT22;4957;51.412;6.724;2022-07-29T12:48:53;28.60;48.00
9837;DHT22;4957;51.412;6.724;2022-07-29T12:51:37;28.60;47.40
9837;DHT22;4957;51.412;6.724;2022-07-29T12:54:14;28.60;46.90
9837;DHT22;4957;51.412;6.724;2022-07-29T12:56:42;28.60;47.00
9837;DHT22;4957;51.412;6.724;2022-07-29T12:59:12;28.60;47.30
9837;DHT22;4957;51.412;6.724;2022-07-29T13:01:38;28.60;46.30
9837;DHT22;4957;51.412;6.724;2022-07-29T13:04:04;28.70;46.80
9837;DHT22;4957;51.412;6.724;2022-07-29T13:06:42;28.70;46.80
9837;DHT22;4957;51.412;6.724;2022-07-29T13:11:42;28.80;46.00
9837;DHT22;4957;51.412;6.724;2022-07-29T13:14:14;28.90;45.80
9837;DHT22;4957;51.412;6.724;2022-07-29T13:17:06;28.90;45.70
9837;DHT22;4957;51.412;6.724;2022-07-29T13:19:40;28.90;45.20
9837;DHT22;4957;51.412;6.724;2022-07-29T13:22:10;29.00;46.10
9837;DHT22;4957;51.412;6.724;2022-07-29T13:24:53;29.00;45.70
9837;DHT22;4957;51.412;6.724;2022-07-29T13:27:22;29.00;45.10
9837;DHT22;4957;51.412;6.724;2022-07-29T13:29:48;29.10;45.30
9837;DHT22;4957;51.412;6.724;2022-07-29T13:32:17;29.10;45.30
9837;DHT22;4957;51.412;6.724;2022-07-29T13:34:43;29.20;45.00
9837;DHT22;4957;51.412;6.724;2022-07-29T13:37:08;29.20;45.40
9837;DHT22;4957;51.412;6.724;2022-07-29T13:39:34;29.30;44.50
9837;DHT22;4957;51.412;6.724;2022-07-29T13:42:00;29.40;44.40
9837;DHT22;4957;51.412;6.724;2022-07-29T13:44:26;29.40;44.20
9837;DHT22;4957;51.412;6.724;2022-07-29T13:46:52;29.40;44.20
9837;DHT22;4957;51.412;6.724;2022-07-29T13:49:17;29.50;44.10
9837;DHT22;4957;51.412;6.724;2022-07-29T13:51:43;29.50;43.80
9837;DHT22;4957;51.412;6.724;2022-07-29T13:54:09;29.50;43.80
9837;DHT22;4957;51.412;6.724;2022-07-29T13:56:34;29.40;43.60
9837;DHT22;4957;51.412;6.724;2022-07-29T13:59:00;29.40;43.50
9837;DHT22;4957;51.412;6.724;2022-07-29T14:01:26;29.40;43.30
9837;DHT22;4957;51.412;6.724;2022-07-29T14:03:53;29.40;43.60
9837;DHT22;4957;51.412;6.724;2022-07-29T14:06:19;29.40;43.50
9837;DHT22;4957;51.412;6.724;2022-07-29T14:08:44;29.30;43.40
9837;DHT22;4957;51.412;6.724;2022-07-29T14:11:10;29.30;43.20
9837;DHT22;4957;51.412;6.724;2022-07-29T14:13:36;29.20;43.10
9837;DHT22;4957;51.412;6.724;2022-07-29T14:16:01;29.20;43.30
9837;DHT22;4957;51.412;6.724;2022-07-29T14:18:27;29.10;43.10
9837;DHT22;4957;51.412;6.724;2022-07-29T14:20:53;29.10;43.40
9837;DHT22;4957;51.412;6.724;2022-07-29T14:23:19;29.00;43.30
9837;DHT22;4957;51.412;6.724;2022-07-29T14:25:44;29.00;43.30
9837;DHT22;4957;51.412;6.724;2022-07-29T14:28:10;28.90;43.10
9837;DHT22;4957;51.412;6.724;2022-07-29T14:30:36;28.90;43.20
9837;DHT22;4957;51.412;6.724;2022-07-29T14:33:02;28.80;43.30
9837;DHT22;4957;51.412;6.724;2022-07-29T14:35:28;28.80;43.20
9837;DHT22;4957;51.412;6.724;2022-07-29T14:37:54;28.80;42.90
9837;DHT22;4957;51.412;6.724;2022-07-29T14:40:19;28.70;43.10
9837;DHT22;4957;51.412;6.724;2022-07-29T14:42:45;28.70;43.50
9837;DHT22;4957;51.412;6.724;2022-07-29T14:45:11;28.70;43.00
9837;DHT22;4957;51.412;6.724;2022-07-29T14:47:37;28.70;43.00
9837;DHT22;4957;51.412;6.724;2022-07-29T14:50:04;28.70;43.30
9837;DHT22;4957;51.412;6.724;2022-07-29T14:52:30;28.60;43.10
9837;DHT22;4957;51.412;6.724;2022-07-29T14:54:56;28.60;43.60
9837;DHT22;4957;51.412;6.724;2022-07-29T14:57:21;28.60;43.00
9837;DHT22;4957;51.412;6.724;2022-07-29T14:59:47;28.50;43.20
9837;DHT22;4957;51.412;6.724;2022-07-29T15:02:13;28.50;43.30
9837;DHT22;4957;51.412;6.724;2022-07-29T15:04:39;28.50;43.50
9837;DHT22;4957;51.412;6.724;2022-07-29T15:07:05;28.50;43.30
9837;DHT22;4957;51.412;6.724;2022-07-29T15:09:31;28.50;43.10
9837;DHT22;4957;51.412;6.724;2022-07-29T15:11:56;28.50;43.30
9837;DHT22;4957;51.412;6.724;2022-07-29T15:14:22;28.60;43.00
9837;DHT22;4957;51.412;6.724;2022-07-29T15:16:48;28.50;42.80
9837;DHT22;4957;51.412;6.724;2022-07-29T15:19:14;28.50;42.60
9837;DHT22;4957;51.412;6.724;2022-07-29T15:21:39;28.50;42.30
9837;DHT22;4957;51.412;6.724;2022-07-29T15:24:05;28.50;42.00
9837;DHT22;4957;51.412;6.724;2022-07-29T15:26:32;28.50;42.20
9837;DHT22;4957;51.412;6.724;2022-07-29T15:28:58;28.50;41.50
9837;DHT22;4957;51.412;6.724;2022-07-29T15:31:24;28.50;41.80
9837;DHT22;4957;51.412;6.724;2022-07-29T15:33:50;28.50;41.20
9837;DHT22;4957;51.412;6.724;2022-07-29T15:36:16;28.50;41.30
9837;DHT22;4957;51.412;6.724;2022-07-29T15:38:42;28.50;41.00
9837;DHT22;4957;51.412;6.724;2022-07-29T15:41:09;28.50;41.20
9837;DHT22;4957;51.412;6.724;2022-07-29T15:43:42;28.50;41.00
9837;DHT22;4957;51.412;6.724;2022-07-29T15:46:08;28.60;40.90
9837;DHT22;4957;51.412;6.724;2022-07-29T15:48:53;28.60;40.80
9837;DHT22;4957;51.412;6.724;2022-07-29T15:51:18;28.50;40.60
9837;DHT22;4957;51.412;6.724;2022-07-29T15:53:45;28.50;40.80
9837;DHT22;4957;51.412;6.724;2022-07-29T15:56:11;28.50;40.80
9837;DHT22;4957;51.412;6.724;2022-07-29T15:58:37;28.50;41.10
9837;DHT22;4957;51.412;6.724;2022-07-29T16:01:03;28.50;41.40
9837;DHT22;4957;51.412;6.724;2022-07-29T16:03:28;28.50;41.40
9837;DHT22;4957;51.412;6.724;2022-07-29T16:05:54;28.40;41.20
9837;DHT22;4957;51.412;6.724;2022-07-29T16:08:20;28.40;41.40
9837;DHT22;4957;51.412;6.724;2022-07-29T16:10:45;28.40;41.40
9837;DHT22;4957;51.412;6.724;2022-07-29T16:13:11;28.50;41.50
9837;DHT22;4957;51.412;6.724;2022-07-29T16:15:37;28.40;41.40
9837;DHT22;4957;51.412;6.724;2022-07-29T16:18:02;28.40;41.40
9837;DHT22;4957;51.412;6.724;2022-07-29T16:20:28;28.40;41.40
9837;DHT22;4957;51.412;6.724;2022-07-29T16:22:54;28.40;41.40
9837;DHT22;4957;51.412;6.724;2022-07-29T16:25:20;28.50;41.50
9837;DHT22;4957;51.412;6.724;2022-07-29T16:27:46;28.40;41.70
9837;DHT22;4957;51.412;6.724;2022-07-29T16:30:12;28.50;41.70
9837;DHT22;4957;51.412;6.724;2022-07-29T16:32:38;28.50;41.80
9837;DHT22;4957;51.412;6.724;2022-07-29T16:35:05;28.50;42.00
9837;DHT22;4957;51.412;6.724;2022-07-29T16:37:31;28.50;42.10
9837;DHT22;4957;51.412;6.724;2022-07-29T16:40:03;28.60;42.10
9837;DHT22;4957;51.412;6.724;2022-07-29T16:42:29;28.50;42.00
9837;DHT22;4957;51.412;6.724;2022-07-29T16:44:54;28.60;42.20
9837;DHT22;4957;51.412;6.724;2022-07-29T16:47:20;28.60;42.10